Time;durP1;ratioP1;P1;durP2;ratioP2;P2;SDS_P1;SDS_P2;PMS_P1;PMS_P2;Temp;Humidity;BMP_temperature;BMP_pressure;BME280_temperature;BME280_humidity;BME280_pressure;Samples;Min_cycle;Max_cycle;Signal;HPM_P1;HPM_P2
2023/02/05 00:02:23;;;;;;;1.58;1.48;;;15.10;62.60;;;;;;5088138;28;20496;-20
2023/02/05 00:04:48;;;;;;;1.58;1.48;;;15.10;62.50;;;;;;5087565;28;20082;-24
2023/02/05 00:07:14;;;;;;;1.20;1.20;;;15.00;62.80;;;;;;5085983;28;20032;-20
2023/02/05 00:09:40;;;;;;;1.63;1.52;;;14.90;63.00;;;;;;5086458;28;20080;-20
2023/02/05 00:12:05;;;;;;;1.55;1.45;;;14.90;63.10;;;;;;5085324;28;20055;-20
2023/02/05 00:14:31;;;;;;;1.50;1.40;;;15.00;62.90;;;;;;5086318;28;20315;-19
2023/02/05 00:16:56;;;;;;;1.55;1.45;;;15.00;62.90;;;;;;5086538;28;20027;-19
2023/02/05 00:19:22;;;;;;;1.55;1.45;;;15.00;63.60;;;;;;5088020;28;20129;-19
2023/02/05 00:21:48;;;;;;;1.60;1.50;;;15.00;62.90;;;;;;5086106;28;20405;-19
2023/02/05 00:24:13;;;;;;;1.42;1.40;;;15.00;62.90;;;;;;5084978;28;20040;-26
2023/02/05 00:26:39;;;;;;;1.55;1.40;;;15.10;62.80;;;;;;5086772;28;20052;-20
2023/02/05 00:29:05;;;;;;;1.85;1.75;;;15.00;62.80;;;;;;5087230;28;20401;-19
2023/02/05 00:31:31;;;;;;;1.40;1.30;;;15.00;62.60;;;;;;5087766;28;20020;-19
2023/02/05 00:33:56;;;;;;;1.63;1.52;;;15.00;62.50;;;;;;5086284;28;20458;-20
2023/02/05 00:36:22;;;;;;;1.60;1.50;;;14.90;62.70;;;;;;5085296;28;20032;-19
2023/02/05 00:38:48;;;;;;;1.70;1.60;;;15.00;62.80;;;;;;5086395;28;20042;-29
2023/02/05 00:41:14;;;;;;;2.15;2.05;;;15.00;62.90;;;;;;5087171;28;20028;-19
2023/02/05 00:43:40;;;;;;;1.77;1.67;;;15.00;62.80;;;;;;5085969;28;20115;-21
2023/02/05 00:46:05;;;;;;;1.60;1.50;;;15.00;62.80;;;;;;5085431;28;20020;-20
2023/02/05 00:48:31;;;;;;;1.50;1.50;;;15.00;62.90;;;;;;5086069;28;20036;-20
2023/02/05 00:50:57;;;;;;;1.88;1.55;;;15.10;62.60;;;;;;5085158;28;20024;-19
2023/02/05 00:53:22;;;;;;;1.70;1.60;;;15.10;62.60;;;;;;5088267;28;20560;-20
2023/02/05 00:55:48;;;;;;;1.90;1.80;;;15.00;62.60;;;;;;5087270;28;20153;-19
2023/02/05 00:58:14;;;;;;;1.80;1.70;;;15.00;62.90;;;;;;5088192;28;20107;-19
2023/02/05 01:00:40;;;;;;;1.60;1.50;;;15.00;62.90;;;;;;5086213;28;20032;-20
2023/02/05 01:03:05;;;;;;;1.15;1.15;;;14.90;62.90;;;;;;5085132;28;20045;-21
2023/02/05 01:05:33;;;;;;;1.63;1.52;;;14.80;63.10;;;;;;5086708;28;20481;-19
2023/02/05 01:07:58;;;;;;;1.67;1.58;;;14.80;63.20;;;;;;5084662;28;20020;-25
2023/02/05 01:10:24;;;;;;;2.08;1.90;;;14.90;63.00;;;;;;5084716;28;20507;-20
2023/02/05 01:12:49;;;;;;;1.65;1.55;;;14.90;62.90;;;;;;5084682;28;20081;-21
2023/02/05 01:15:15;;;;;;;1.38;1.33;;;15.00;63.50;;;;;;5084156;28;20044;-21
2023/02/05 01:17:41;;;;;;;1.40;1.30;;;14.90;63.00;;;;;;5084880;28;20069;-19
2023/02/05 01:20:08;;;;;;;1.42;1.38;;;15.00;62.70;;;;;;5086169;28;20033;-20
2023/02/05 01:22:34;;;;;;;1.58;1.48;;;15.00;62.80;;;;;;5084456;28;20048;-20
2023/02/05 01:24:59;;;;;;;1.50;1.40;;;15.10;62.60;;;;;;5087019;28;20058;-22
2023/02/05 01:27:25;;;;;;;1.63;1.52;;;15.10;62.60;;;;;;5084844;28;20590;-21
2023/02/05 01:29:50;;;;;;;1.60;1.50;;;14.90;62.90;;;;;;5085292;28;20020;-25
2023/02/05 01:32:16;;;;;;;1.80;1.70;;;14.90;63.00;;;;;;5086893;28;20023;-19
2023/02/05 01:34:42;;;;;;;1.58;1.50;;;14.90;62.90;;;;;;5070345;28;20028;-20
2023/02/05 01:37:08;;;;;;;1.42;1.40;;;15.10;62.70;;;;;;5084470;28;20028;-20
2023/02/05 01:39:35;;;;;;;1.58;1.50;;;14.90;63.10;;;;;;5087478;28;20036;-20
2023/02/05 01:42:00;;;;;;;1.40;1.30;;;14.90;63.00;;;;;;5085215;28;20084;-21
2023/02/05 01:44:28;;;;;;;1.45;1.40;;;14.90;63.20;;;;;;5086177;28;20564;-20
2023/02/05 01:46:54;;;;;;;1.70;1.60;;;14.90;63.20;;;;;;5085391;28;20023;-20
2023/02/05 01:49:34;;;;;;;1.30;1.30;;;15.00;62.90;;;;;;5086268;28;20016;-19
2023/02/05 01:52:02;;;;;;;1.55;1.50;;;14.90;62.90;;;;;;5081666;28;20043;-26
2023/02/05 01:54:28;;;;;;;1.60;1.50;;;14.90;63.00;;;;;;5085302;28;20034;-23
2023/02/05 01:56:56;;;;;;;1.25;1.23;;;15.00;63.70;;;;;;5084295;28;20020;-20
2023/02/05 01:59:23;;;;;;;1.50;1.40;;;14.80;63.10;;;;;;5086430;28;20028;-20
2023/02/05 02:01:49;;;;;;;1.60;1.50;;;14.90;63.10;;;;;;5085422;28;20044;-20
2023/02/05 02:04:19;;;;;;;1.60;1.50;;;14.90;63.10;;;;;;5081405;28;20027;-19
2023/02/05 02:06:45;;;;;;;1.83;1.73;;;14.90;63.10;;;;;;5069218;28;20035;-22
2023/02/05 02:09:12;;;;;;;1.80;1.70;;;15.00;63.00;;;;;;5085066;28;20098;-20
2023/02/05 02:11:39;;;;;;;1.75;1.65;;;14.90;63.00;;;;;;5083550;28;20563;-20
2023/02/05 02:14:05;;;;;;;1.15;1.15;;;14.90;62.90;;;;;;5086495;28;20016;-24
2023/02/05 02:16:32;;;;;;;1.15;1.15;;;15.00;62.90;;;;;;5083652;28;20093;-29
2023/02/05 02:18:57;;;;;;;1.30;1.30;;;14.80;63.10;;;;;;5082243;28;20023;-22
2023/02/05 02:21:41;;;;;;;1.38;1.30;;;14.80;63.30;;;;;;5083641;28;20483;-23
2023/02/05 02:24:20;;;;;;;1.80;1.70;;;14.80;63.40;;;;;;5084832;28;20035;-20
2023/02/05 02:26:48;;;;;;;1.50;1.40;;;14.80;63.10;;;;;;5082808;28;20028;-23
2023/02/05 02:29:21;;;;;;;1.10;1.00;;;14.90;62.90;;;;;;5084226;28;20111;-24
2023/02/05 02:31:55;;;;;;;1.45;1.38;;;14.80;63.10;;;;;;5066517;28;20077;-25
2023/02/05 02:34:27;;;;;;;1.60;1.50;;;14.80;63.10;;;;;;5084315;28;20039;-28
2023/02/05 02:36:58;;;;;;;1.52;1.42;;;14.70;63.20;;;;;;5065585;28;20028;-19
2023/02/05 02:39:25;;;;;;;1.25;1.20;;;14.80;63.40;;;;;;5084768;28;20056;-20
2023/02/05 02:42:02;;;;;;;1.20;1.20;;;14.80;62.90;;;;;;5085514;28;20024;-20
2023/02/05 02:44:41;;;;;;;1.40;1.30;;;14.80;63.30;;;;;;5085636;28;20039;-20
2023/02/05 02:47:14;;;;;;;0.90;0.90;;;14.80;63.20;;;;;;5085443;28;20024;-20
2023/02/05 02:49:43;;;;;;;1.27;1.27;;;14.90;63.10;;;;;;5065660;28;20489;-19
2023/02/05 02:52:09;;;;;;;1.10;1.10;;;14.90;63.10;;;;;;5082333;28;20020;-20
2023/02/05 02:54:35;;;;;;;1.05;0.90;;;14.90;63.00;;;;;;5082586;28;20032;-22
2023/02/05 02:57:01;;;;;;;1.35;1.25;;;14.80;62.90;;;;;;5067224;28;20036;-22
2023/02/05 02:59:27;;;;;;;1.60;1.50;;;14.80;63.30;;;;;;5069502;28;20024;-24
2023/02/05 03:01:57;;;;;;;1.40;1.30;;;14.80;63.10;;;;;;5084026;28;20044;-23
2023/02/05 03:04:33;;;;;;;1.30;1.30;;;14.70;63.50;;;;;;5066784;28;21013;-19
2023/02/05 03:07:21;;;;;;;1.17;1.13;;;14.70;63.50;;;;;;5077997;28;20044;-19
2023/02/05 03:10:21;;;;;;;1.20;1.20;;;14.80;63.30;;;;;;5067166;28;20024;-20
2023/02/05 03:12:47;;;;;;;1.17;1.10;;;14.70;63.30;;;;;;5073422;28;20381;-20
2023/02/05 03:15:12;;;;;;;0.90;0.90;;;14.70;63.60;;;;;;5084478;28;20039;-21
2023/02/05 03:17:38;;;;;;;1.20;1.20;;;14.60;63.80;;;;;;5083767;28;20532;-22
2023/02/05 03:20:10;;;;;;;1.00;1.00;;;14.70;64.00;;;;;;5083745;28;20027;-19
2023/02/05 03:22:36;;;;;;;1.30;1.20;;;14.80;63.50;;;;;;5086110;28;20123;-20
2023/02/05 03:25:01;;;;;;;1.05;1.02;;;14.70;63.40;;;;;;5081165;28;20153;-20
2023/02/05 03:27:27;;;;;;;1.17;1.15;;;14.80;63.40;;;;;;5082737;28;20035;-24
2023/02/05 03:29:52;;;;;;;1.17;1.10;;;14.70;63.70;;;;;;5084015;28;20024;-27
2023/02/05 03:32:33;;;;;;;1.10;1.10;;;14.70;64.20;;;;;;5083962;28;20235;-20
2023/02/05 03:35:06;;;;;;;0.98;0.98;;;14.70;63.60;;;;;;5082922;28;20025;-22
2023/02/05 03:38:13;;;;;;;1.00;1.00;;;14.80;63.60;;;;;;5083726;28;20374;-21
2023/02/05 03:40:46;;;;;;;1.00;1.00;;;14.80;63.30;;;;;;5082565;28;20476;-19
2023/02/05 03:43:29;;;;;;;0.90;0.90;;;14.80;63.10;;;;;;5080994;28;20023;-20
2023/02/05 03:46:12;;;;;;;0.82;0.82;;;14.70;63.70;;;;;;5076560;28;20012;-22
2023/02/05 03:48:50;;;;;;;1.03;1.00;;;14.60;63.90;;;;;;5083187;28;20047;-23
2023/02/05 03:51:46;;;;;;;1.00;0.98;;;14.50;64.10;;;;;;5081125;28;20119;-22
2023/02/05 03:54:50;;;;;;;0.95;0.95;;;14.60;64.10;;;;;;5081336;28;20028;-20
2023/02/05 03:57:15;;;;;;;0.90;0.90;;;14.60;63.90;;;;;;5081291;28;20020;-22
2023/02/05 03:59:41;;;;;;;0.70;0.70;;;14.60;64.60;;;;;;5083076;28;20107;-19
2023/02/05 04:02:06;;;;;;;1.05;1.05;;;14.50;64.10;;;;;;5083232;28;20071;-21
2023/02/05 04:04:32;;;;;;;0.93;0.93;;;14.60;64.00;;;;;;5082392;28;20035;-24
2023/02/05 04:06:57;;;;;;;0.90;0.90;;;14.60;63.80;;;;;;5083719;28;20024;-22
2023/02/05 04:09:23;;;;;;;1.13;1.10;;;14.60;64.00;;;;;;5085366;28;20623;-20
2023/02/05 04:11:48;;;;;;;1.00;1.00;;;14.70;63.60;;;;;;5083081;28;20032;-20
2023/02/05 04:14:14;;;;;;;1.20;1.10;;;14.60;63.90;;;;;;5084408;28;20104;-20
2023/02/05 04:16:40;;;;;;;0.82;0.82;;;14.70;63.70;;;;;;5083776;28;21226;-21
2023/02/05 04:19:05;;;;;;;1.20;1.20;;;14.70;63.70;;;;;;5082628;28;20024;-23
2023/02/05 04:21:31;;;;;;;1.00;1.00;;;14.60;63.70;;;;;;5081477;28;20027;-23
2023/02/05 04:23:56;;;;;;;0.90;0.90;;;14.60;63.70;;;;;;5082414;28;20093;-21
2023/02/05 04:26:22;;;;;;;0.88;0.88;;;14.70;63.80;;;;;;5083735;28;20031;-20
2023/02/05 04:28:48;;;;;;;1.10;1.08;;;14.60;63.70;;;;;;5086903;28;20016;-20
2023/02/05 04:31:13;;;;;;;0.85;0.85;;;14.60;64.00;;;;;;5084188;28;20512;-19
2023/02/05 04:33:39;;;;;;;0.85;0.85;;;14.60;64.20;;;;;;5087559;28;20032;-19
2023/02/05 04:36:05;;;;;;;0.70;0.70;;;14.60;63.80;;;;;;5088879;28;20063;-22
2023/02/05 04:38:31;;;;;;;0.73;0.73;;;14.50;64.20;;;;;;5086784;28;20021;-19
2023/02/05 04:40:56;;;;;;;0.70;0.70;;;14.60;63.80;;;;;;5086342;28;20020;-23
2023/02/05 04:43:22;;;;;;;1.05;0.95;;;14.60;64.00;;;;;;5087056;28;20046;-21
2023/02/05 04:45:48;;;;;;;0.95;0.95;;;14.50;64.30;;;;;;5087526;28;20035;-20
2023/02/05 04:48:13;;;;;;;0.50;0.50;;;14.50;64.10;;;;;;5084029;28;20025;-28
2023/02/05 04:50:39;;;;;;;0.70;0.70;;;14.40;64.30;;;;;;5087220;28;20035;-21
2023/02/05 04:53:05;;;;;;;0.65;0.65;;;14.40;64.50;;;;;;5087125;28;20545;-20
2023/02/05 04:55:30;;;;;;;0.82;0.82;;;14.50;64.10;;;;;;5086388;28;20667;-23
2023/02/05 04:57:56;;;;;;;1.02;1.02;;;14.50;64.10;;;;;;5086963;28;20016;-20
2023/02/05 05:00:22;;;;;;;0.70;0.70;;;14.60;64.00;;;;;;5084611;28;20035;-22
2023/02/05 05:02:48;;;;;;;0.80;0.80;;;14.50;64.10;;;;;;5084998;28;20024;-20
2023/02/05 05:05:13;;;;;;;1.05;0.95;;;14.50;64.10;;;;;;5086466;28;20028;-19
2023/02/05 05:07:39;;;;;;;0.70;0.70;;;14.50;64.20;;;;;;5086610;28;20563;-29
2023/02/05 05:10:08;;;;;;;0.80;0.80;;;14.40;64.20;;;;;;5086483;28;20485;-19
2023/02/05 05:12:34;;;;;;;0.85;0.85;;;14.40;64.60;;;;;;5083835;28;20124;-21
2023/02/05 05:15:00;;;;;;;0.70;0.70;;;14.50;64.40;;;;;;5086145;28;20107;-20
2023/02/05 05:17:25;;;;;;;0.50;0.50;;;14.40;64.30;;;;;;5087348;28;20501;-22
2023/02/05 05:19:51;;;;;;;0.80;0.80;;;14.40;64.40;;;;;;5086797;28;20027;-20
2023/02/05 05:22:17;;;;;;;0.60;0.60;;;14.40;64.30;;;;;;5083273;28;20024;-19
2023/02/05 05:24:42;;;;;;;0.80;0.80;;;14.50;64.40;;;;;;5087000;28;20400;-20
2023/02/05 05:27:08;;;;;;;0.90;0.90;;;14.60;63.90;;;;;;5084608;28;20036;-20
2023/02/05 05:29:34;;;;;;;0.80;0.80;;;14.50;64.10;;;;;;5087014;28;20027;-23
2023/02/05 05:31:59;;;;;;;0.70;0.70;;;14.50;64.00;;;;;;5087094;28;20051;-20
2023/02/05 05:34:25;;;;;;;0.60;0.60;;;14.40;64.30;;;;;;5084941;28;20064;-20
2023/02/05 05:36:52;;;;;;;0.98;0.98;;;14.40;64.70;;;;;;5083703;28;20055;-20
2023/02/05 05:44:50;;;;;;;0.90;0.90;;;14.40;64.60;;;;;;5086191;28;20065;-20
2023/02/05 05:47:16;;;;;;;0.68;0.68;;;14.30;64.80;;;;;;5084702;28;20035;-20
2023/02/05 05:49:42;;;;;;;0.82;0.82;;;14.30;64.80;;;;;;5084830;28;20035;-20
2023/02/05 05:52:08;;;;;;;0.82;0.82;;;14.40;64.60;;;;;;5084772;28;20025;-22
2023/02/05 05:54:33;;;;;;;0.70;0.70;;;14.30;64.80;;;;;;5083508;28;20020;-20
2023/02/05 05:56:59;;;;;;;1.10;1.10;;;14.40;64.60;;;;;;5084397;28;20562;-20
2023/02/05 05:59:24;;;;;;;1.10;1.10;;;14.30;64.80;;;;;;5083964;28;20046;-20
2023/02/05 06:01:50;;;;;;;0.80;0.80;;;14.30;64.90;;;;;;5085053;28;20036;-22
2023/02/05 06:04:15;;;;;;;0.88;0.88;;;14.30;65.10;;;;;;5086483;28;20493;-20
2023/02/05 06:06:41;;;;;;;0.90;0.90;;;14.30;65.00;;;;;;5085010;28;20032;-21
2023/02/05 06:09:07;;;;;;;0.70;0.70;;;14.20;65.10;;;;;;5085952;28;20016;-26
2023/02/05 06:11:32;;;;;;;0.90;0.90;;;14.20;65.00;;;;;;5084439;28;20028;-21
2023/02/05 06:13:58;;;;;;;0.98;0.98;;;14.30;65.00;;;;;;5085313;28;20035;-20
2023/02/05 06:16:23;;;;;;;0.70;0.70;;;14.30;64.90;;;;;;5082732;28;20132;-21
2023/02/05 06:18:49;;;;;;;0.65;0.65;;;14.30;65.00;;;;;;5085667;28;20043;-24
2023/02/05 06:21:14;;;;;;;0.50;0.50;;;14.20;65.10;;;;;;5083962;28;20505;-22
2023/02/05 06:23:40;;;;;;;1.52;0.60;;;14.20;65.20;;;;;;5084598;28;20024;-19
2023/02/05 06:26:05;;;;;;;0.80;0.80;;;14.30;64.90;;;;;;5086396;28;20023;-23
2023/02/05 06:28:31;;;;;;;0.85;0.85;;;14.30;64.90;;;;;;5085697;28;20501;-21
2023/02/05 06:30:56;;;;;;;0.55;0.55;;;14.30;65.00;;;;;;5081705;28;20132;-19
2023/02/05 06:33:22;;;;;;;0.82;0.70;;;14.30;64.80;;;;;;5081866;28;20028;-21
2023/02/05 06:35:48;;;;;;;0.95;0.95;;;14.30;65.00;;;;;;5085526;28;20588;-20
2023/02/05 06:38:13;;;;;;;0.60;0.60;;;14.20;64.90;;;;;;5087317;28;20489;-20
2023/02/05 06:40:39;;;;;;;0.60;0.60;;;14.20;65.90;;;;;;5084604;28;20181;-22
2023/02/05 06:43:04;;;;;;;0.57;0.57;;;14.20;65.10;;;;;;5083660;28;20025;-20
2023/02/05 06:45:30;;;;;;;0.85;0.85;;;14.20;65.20;;;;;;5084017;28;20016;-29
2023/02/05 06:47:56;;;;;;;0.50;0.50;;;14.20;65.10;;;;;;5083030;28;20091;-20
2023/02/05 06:50:22;;;;;;;0.70;0.70;;;14.20;65.20;;;;;;5084209;28;20165;-20
2023/02/05 06:52:48;;;;;;;0.60;0.60;;;14.30;65.00;;;;;;5084243;28;20028;-20
2023/02/05 06:55:14;;;;;;;0.50;0.50;;;14.20;65.10;;;;;;5085073;28;20011;-19
2023/02/05 06:57:40;;;;;;;0.50;0.50;;;14.20;65.10;;;;;;5083754;28;20024;-22
2023/02/05 07:00:06;;;;;;;0.65;0.65;;;14.20;65.10;;;;;;5085061;28;20016;-22
2023/02/05 07:02:31;;;;;;;0.60;0.60;;;14.20;65.10;;;;;;5083956;28;20033;-20
2023/02/05 07:04:57;;;;;;;0.95;0.82;;;14.20;65.10;;;;;;5079554;28;20036;-21
2023/02/05 07:07:23;;;;;;;0.98;0.88;;;14.20;65.10;;;;;;5082890;28;20028;-22
2023/02/05 07:09:48;;;;;;;0.50;0.50;;;14.20;65.00;;;;;;5084765;28;20512;-20
2023/02/05 07:12:14;;;;;;;0.60;0.55;;;14.20;65.10;;;;;;5084277;28;20039;-20
2023/02/05 07:14:40;;;;;;;0.50;0.50;;;14.20;65.10;;;;;;5084239;28;20107;-21
2023/02/05 07:17:06;;;;;;;0.43;0.43;;;14.20;65.10;;;;;;5084217;28;20036;-19
2023/02/05 07:19:32;;;;;;;0.52;0.52;;;14.20;65.10;;;;;;5083036;28;20113;-20
2023/02/05 07:21:57;;;;;;;0.40;0.40;;;14.20;64.90;;;;;;5083160;28;20683;-22
2023/02/05 07:24:23;;;;;;;0.60;0.60;;;14.20;65.10;;;;;;5081968;28;20499;-23
2023/02/05 07:26:48;;;;;;;0.60;0.60;;;14.20;65.30;;;;;;5083778;28;20024;-19
2023/02/05 07:29:14;;;;;;;0.88;0.88;;;14.20;65.10;;;;;;5086141;28;20536;-24
2023/02/05 07:31:39;;;;;;;0.50;0.50;;;14.20;65.10;;;;;;5082969;28;20051;-20
2023/02/05 07:34:05;;;;;;;0.65;0.60;;;14.20;65.10;;;;;;5084450;28;20028;-19
2023/02/05 07:36:31;;;;;;;0.50;0.50;;;14.20;65.00;;;;;;5083349;28;20051;-20
2023/02/05 07:38:56;;;;;;;0.40;0.40;;;14.20;65.10;;;;;;5082471;28;20408;-22
2023/02/05 07:41:22;;;;;;;0.50;0.50;;;14.20;65.10;;;;;;5084308;28;20027;-21
2023/02/05 07:43:52;;;;;;;0.73;0.73;;;14.20;65.10;;;;;;5084592;28;20127;-19
2023/02/05 07:46:17;;;;;;;0.55;0.55;;;14.20;65.20;;;;;;5083522;28;20469;-22
2023/02/05 07:48:43;;;;;;;0.85;0.70;;;14.20;65.10;;;;;;5083957;28;20081;-21
2023/02/05 07:51:16;;;;;;;0.75;0.75;;;14.20;65.10;;;;;;5084184;28;20028;-20
2023/02/05 07:53:41;;;;;;;0.50;0.50;;;14.20;65.10;;;;;;5084301;28;20024;-23
2023/02/05 07:56:07;;;;;;;0.70;0.60;;;14.30;65.00;;;;;;5085345;28;20036;-23
2023/02/05 07:58:33;;;;;;;0.60;0.60;;;14.20;64.80;;;;;;5082739;28;20213;-20
2023/02/05 08:01:02;;;;;;;0.68;0.68;;;14.20;64.80;;;;;;5083006;28;20048;-19
2023/02/05 08:03:28;;;;;;;0.93;0.57;;;14.20;65.00;;;;;;5087064;28;20044;-21
2023/02/05 08:05:53;;;;;;;0.60;0.60;;;14.20;65.10;;;;;;5087551;28;20562;-19
2023/02/05 08:08:19;;;;;;;0.50;0.50;;;14.20;65.10;;;;;;5090059;28;20017;-24
2023/02/05 08:10:44;;;;;;;0.80;0.80;;;14.20;65.10;;;;;;5086328;28;20027;-24
2023/02/05 08:13:10;;;;;;;0.70;0.70;;;14.20;65.00;;;;;;5086217;28;20718;-23
2023/02/05 08:15:39;;;;;;;0.50;0.50;;;14.20;65.00;;;;;;5086915;28;20481;-20
2023/02/05 08:18:04;;;;;;;0.63;0.63;;;14.20;65.00;;;;;;5087692;28;20828;-21
2023/02/05 08:20:30;;;;;;;0.40;0.40;;;14.20;65.00;;;;;;5087139;28;20048;-20
2023/02/05 08:22:55;;;;;;;0.65;0.65;;;14.20;65.00;;;;;;5087182;28;20489;-29
2023/02/05 08:25:21;;;;;;;0.60;0.60;;;14.20;65.10;;;;;;5086161;28;20111;-25
2023/02/05 08:27:47;;;;;;;0.60;0.60;;;14.20;64.90;;;;;;5087798;28;20019;-20
2023/02/05 08:30:14;;;;;;;0.50;0.50;;;14.20;64.90;;;;;;5085387;28;20496;-22
2023/02/05 08:32:40;;;;;;;0.65;0.65;;;14.20;64.90;;;;;;5087375;28;20020;-20
2023/02/05 08:35:05;;;;;;;0.57;0.57;;;14.20;65.10;;;;;;5086483;28;20024;-20
2023/02/05 08:37:31;;;;;;;0.75;0.75;;;14.20;65.00;;;;;;5087714;28;20024;-20
2023/02/05 08:39:56;;;;;;;0.60;0.60;;;14.20;65.10;;;;;;5086188;28;20028;-20
2023/02/05 08:42:23;;;;;;;0.65;0.65;;;14.20;64.80;;;;;;5084060;28;20028;-25
2023/02/05 08:44:49;;;;;;;0.55;0.55;;;14.20;64.80;;;;;;5087040;28;20072;-22
2023/02/05 08:47:18;;;;;;;0.63;0.63;;;14.20;64.90;;;;;;5088167;28;20027;-23
2023/02/05 08:49:43;;;;;;;0.50;0.50;;;14.20;64.90;;;;;;5086074;28;20023;-20
2023/02/05 08:52:09;;;;;;;0.50;0.50;;;14.10;65.00;;;;;;5084758;28;20031;-19
2023/02/05 08:54:34;;;;;;;0.65;0.65;;;14.20;65.10;;;;;;5085150;28;20040;-20
2023/02/05 08:57:00;;;;;;;0.50;0.50;;;14.20;65.00;;;;;;5087302;28;20412;-20
2023/02/05 08:59:26;;;;;;;0.50;0.50;;;14.20;64.60;;;;;;5087860;28;20032;-20
2023/02/05 09:01:51;;;;;;;0.43;0.43;;;14.20;64.90;;;;;;5085484;28;20097;-21
2023/02/05 09:04:18;;;;;;;0.30;0.30;;;14.20;65.10;;;;;;5085857;28;20025;-24
2023/02/05 09:06:44;;;;;;;0.40;0.40;;;14.20;64.90;;;;;;5086567;28;20032;-28
2023/02/05 09:09:10;;;;;;;0.47;0.47;;;14.20;64.80;;;;;;5087101;28;20020;-23
2023/02/05 09:11:35;;;;;;;0.60;0.60;;;14.20;64.70;;;;;;5087388;28;20080;-20
2023/02/05 09:14:01;;;;;;;0.50;0.47;;;14.20;64.80;;;;;;5085622;28;20081;-20
2023/02/05 09:16:27;;;;;;;0.70;0.70;;;14.20;64.70;;;;;;5084785;28;20442;-20
2023/02/05 09:18:54;;;;;;;0.40;0.40;;;14.20;64.60;;;;;;5084545;28;20028;-20
2023/02/05 09:21:19;;;;;;;0.55;0.55;;;14.20;65.50;;;;;;5086131;28;20033;-25
2023/02/05 09:23:45;;;;;;;0.45;0.32;;;14.30;64.60;;;;;;5084355;28;20378;-21
2023/02/05 09:26:10;;;;;;;0.40;0.40;;;14.30;64.40;;;;;;5087012;28;20062;-22
2023/02/05 09:28:36;;;;;;;0.50;0.50;;;14.30;64.40;;;;;;5085486;28;20059;-20
2023/02/05 09:31:08;;;;;;;0.52;0.52;;;14.30;64.10;;;;;;5083944;28;20473;-29
2023/02/05 09:33:34;;;;;;;0.50;0.50;;;14.30;64.00;;;;;;5087023;28;20051;-20
2023/02/05 09:36:13;;;;;;;0.50;0.50;;;14.40;64.00;;;;;;5086844;28;20508;-25
2023/02/05 09:38:40;;;;;;;0.60;0.60;;;14.40;64.70;;;;;;5084975;28;20024;-21
2023/02/05 09:41:28;;;;;;;0.50;0.50;;;14.40;64.20;;;;;;5087658;28;20473;-21
2023/02/05 09:44:19;;;;;;;0.32;0.32;;;14.40;64.20;;;;;;5084098;28;20673;-21
2023/02/05 09:46:47;;;;;;;0.50;0.50;;;14.40;64.20;;;;;;5084026;28;20028;-21
2023/02/05 09:49:18;;;;;;;0.30;0.30;;;14.40;63.90;;;;;;5085509;28;20520;-22
2023/02/05 09:51:51;;;;;;;0.20;0.20;;;14.40;63.90;;;;;;5085467;28;20485;-20
2023/02/05 09:54:39;;;;;;;0.50;0.50;;;14.40;63.80;;;;;;5084618;28;20496;-22
2023/02/05 09:57:07;;;;;;;0.50;0.50;;;14.40;63.80;;;;;;5083990;28;20115;-20
2023/02/05 09:59:32;;;;;;;0.50;0.50;;;14.50;63.70;;;;;;5069502;28;20153;-20
2023/02/05 10:02:13;;;;;;;0.40;0.40;;;14.40;63.70;;;;;;5085212;28;20123;-25
2023/02/05 10:04:39;;;;;;;0.70;0.70;;;14.40;63.80;;;;;;5081484;28;20046;-21
2023/02/05 10:07:42;;;;;;;0.43;0.43;;;14.40;63.80;;;;;;5085805;28;20028;-23
2023/02/05 10:10:24;;;;;;;0.50;0.50;;;14.40;64.00;;;;;;5082774;28;20024;-25
2023/02/05 10:13:01;;;;;;;0.40;0.40;;;14.40;63.90;;;;;;5086230;28;20642;-20
2023/02/05 10:15:52;;;;;;;0.45;0.45;;;14.40;63.90;;;;;;5085479;28;20303;-24
2023/02/05 10:18:20;;;;;;;0.60;0.60;;;14.40;63.80;;;;;;5084913;28;20031;-20
2023/02/05 10:21:04;;;;;;;0.50;0.50;;;14.40;63.70;;;;;;5083478;28;20392;-20
2023/02/05 10:23:40;;;;;;;0.37;0.37;;;14.40;63.80;;;;;;5068318;28;20036;-20
2023/02/05 10:26:13;;;;;;;0.45;0.45;;;14.50;63.70;;;;;;5081715;28;20028;-20
2023/02/05 10:29:08;;;;;;;0.70;0.70;;;14.40;63.70;;;;;;5085579;28;20050;-20
2023/02/05 10:32:01;;;;;;;0.60;0.60;;;14.40;63.80;;;;;;5084650;28;20015;-20
2023/02/05 10:34:46;;;;;;;0.85;0.40;;;14.40;63.90;;;;;;5085575;28;20090;-32
2023/02/05 10:37:19;;;;;;;0.55;0.55;;;14.40;64.00;;;;;;5086043;28;20104;-22
2023/02/05 10:39:45;;;;;;;0.40;0.40;;;14.50;64.60;;;;;;5081088;28;20028;-23
2023/02/05 10:42:34;;;;;;;0.38;0.38;;;14.50;63.60;;;;;;5084663;28;20500;-29
2023/02/05 10:45:21;;;;;;;0.60;0.60;;;14.50;63.70;;;;;;5084061;28;20036;-23
2023/02/05 10:47:58;;;;;;;0.38;0.30;;;14.40;63.70;;;;;;5083748;28;20103;-21
2023/02/05 10:50:53;;;;;;;0.50;0.50;;;14.40;63.80;;;;;;5086092;28;20033;-20
2023/02/05 10:53:21;;;;;;;0.40;0.40;;;14.40;63.80;;;;;;5077135;28;20035;-23
2023/02/05 10:55:47;;;;;;;0.50;0.50;;;14.40;63.80;;;;;;5080303;28;20023;-20
2023/02/05 10:58:21;;;;;;;0.40;0.40;;;14.50;63.80;;;;;;5084768;28;20028;-19
2023/02/05 11:00:47;;;;;;;0.40;0.40;;;14.50;63.60;;;;;;5085202;28;20016;-29
2023/02/05 11:03:16;;;;;;;0.60;0.60;;;14.50;64.20;;;;;;5083440;28;20458;-20
2023/02/05 11:05:42;;;;;;;0.40;0.40;;;14.60;63.70;;;;;;5084376;28;20071;-20
2023/02/05 11:08:40;;;;;;;0.60;0.60;;;14.50;63.60;;;;;;5102148;28;20515;-22
2023/02/05 11:11:06;;;;;;;0.30;0.30;;;14.50;63.70;;;;;;5084944;28;20032;-21
2023/02/05 11:13:45;;;;;;;0.50;0.50;;;14.50;63.80;;;;;;5083728;28;20435;-20
2023/02/05 11:16:11;;;;;;;0.30;0.30;;;14.60;63.80;;;;;;5068131;28;20028;-20
2023/02/05 11:18:42;;;;;;;0.40;0.40;;;14.50;63.70;;;;;;5084236;28;20408;-25
2023/02/05 11:21:08;;;;;;;0.38;0.38;;;14.50;63.90;;;;;;5067914;28;20024;-20
2023/02/05 11:23:38;;;;;;;0.57;0.40;;;14.50;64.00;;;;;;5085966;28;20039;-20
2023/02/05 11:26:19;;;;;;;0.40;0.40;;;14.50;64.00;;;;;;5083266;28;20573;-24
2023/02/05 11:28:44;;;;;;;0.40;0.40;;;14.50;64.10;;;;;;5085310;28;20055;-22
2023/02/05 11:31:27;;;;;;;0.50;0.50;;;14.50;64.30;;;;;;5083871;28;20452;-22
2023/02/05 11:34:14;;;;;;;0.60;0.60;;;14.60;64.20;;;;;;5083012;28;20032;-27
2023/02/05 11:36:50;;;;;;;0.50;0.50;;;14.60;65.00;;;;;;5086117;28;20182;-20
2023/02/05 11:39:45;;;;;;;0.82;0.70;;;14.60;64.70;;;;;;5087272;28;20012;-23
2023/02/05 11:42:20;;;;;;;0.57;0.50;;;14.60;65.20;;;;;;5077240;28;20040;-26
2023/02/05 11:45:14;;;;;;;0.52;0.40;;;14.60;65.20;;;;;;5086333;28;20064;-23
2023/02/05 11:47:40;;;;;;;1.87;0.50;;;14.70;65.10;;;;;;5102924;28;20145;-20
2023/02/05 11:50:16;;;;;;;0.80;0.38;;;14.60;65.30;;;;;;5088264;28;20521;-22
2023/02/05 11:52:41;;;;;;;0.70;0.50;;;14.60;65.30;;;;;;5069624;28;20466;-20
2023/02/05 11:55:28;;;;;;;0.90;0.75;;;14.70;65.10;;;;;;5069949;28;20073;-21
2023/02/05 11:58:05;;;;;;;0.70;0.63;;;14.70;64.90;;;;;;5083758;28;20024;-23
2023/02/05 12:00:31;;;;;;;0.65;0.60;;;14.70;65.40;;;;;;5086660;28;20373;-27
2023/02/05 12:03:26;;;;;;;0.80;0.50;;;14.60;65.50;;;;;;5087377;28;20551;-27
2023/02/05 12:05:53;;;;;;;0.55;0.55;;;14.70;65.50;;;;;;5085750;28;20486;-21
2023/02/05 12:08:34;;;;;;;1.05;0.50;;;14.80;65.30;;;;;;5086588;28;20496;-20
2023/02/05 12:11:59;;;;;;;0.57;0.57;;;14.70;65.20;;;;;;5088762;28;20024;-22
2023/02/05 12:14:28;;;;;;;0.80;0.50;;;15.00;64.30;;;;;;5077664;28;20548;-21
2023/02/05 12:17:06;;;;;;;0.68;0.50;;;15.00;64.00;;;;;;5077922;28;20051;-22
2023/02/05 12:19:50;;;;;;;1.30;0.45;;;15.00;64.10;;;;;;5054727;28;20027;-28
2023/02/05 12:22:35;;;;;;;0.60;0.60;;;15.10;64.00;;;;;;5055773;28;20032;-24
2023/02/05 12:25:13;;;;;;;0.40;0.40;;;15.10;63.70;;;;;;5073240;28;20068;-22
2023/02/05 12:28:04;;;;;;;1.02;0.50;;;15.10;64.20;;;;;;5074753;28;20062;-22
2023/02/05 12:31:07;;;;;;;0.75;0.50;;;15.20;63.80;;;;;;5053089;28;20536;-27
2023/02/05 12:33:42;;;;;;;0.73;0.50;;;15.20;63.60;;;;;;5057650;28;20438;-22
2023/02/05 12:36:41;;;;;;;0.60;0.50;;;15.20;63.40;;;;;;5079587;28;20096;-22
2023/02/05 12:39:23;;;;;;;0.40;0.40;;;15.10;63.70;;;;;;5075097;28;20032;-20
2023/02/05 12:42:21;;;;;;;0.68;0.60;;;15.00;64.10;;;;;;5056249;28;20057;-31
2023/02/05 12:45:08;;;;;;;0.40;0.40;;;15.00;64.00;;;;;;5074670;28;20385;-23
2023/02/05 12:47:42;;;;;;;0.65;0.50;;;15.10;63.90;;;;;;5060407;28;20095;-22
2023/02/05 12:50:26;;;;;;;;;;;15.20;63.70;;;;;;5085014;28;20463;-19
2023/02/05 12:53:02;;;;;;;0.60;0.25;;;15.20;63.40;;;;;;5085727;28;19904;-24
2023/02/05 12:55:50;;;;;;;0.52;0.50;;;15.20;63.30;;;;;;5068234;28;20554;-21
2023/02/05 12:58:16;;;;;;;0.70;0.35;;;15.20;63.60;;;;;;5077728;28;20028;-22
2023/02/05 13:00:49;;;;;;;0.40;0.40;;;15.10;63.70;;;;;;5086403;28;20020;-21
2023/02/05 13:03:17;;;;;;;0.60;0.60;;;15.10;64.00;;;;;;5085525;28;20044;-20
2023/02/05 13:05:52;;;;;;;0.40;0.40;;;15.10;63.90;;;;;;5087324;28;20040;-21
2023/02/05 13:08:30;;;;;;;0.50;0.50;;;15.30;63.60;;;;;;5087289;28;20039;-24
2023/02/05 13:11:00;;;;;;;0.60;0.60;;;15.20;63.60;;;;;;5084875;28;20028;-26